createdAt,value
2022-12-11T00:00:05.088Z,16.1
2022-12-11T00:05:05.090Z,16.1
2022-12-11T00:10:05.109Z,16.1
2022-12-11T00:15:05.109Z,16.3
2022-12-11T00:20:05.101Z,15.8
2022-12-11T00:25:05.105Z,18.2
2022-12-11T00:30:05.094Z,19.2
2022-12-11T00:35:05.117Z,19.2
2022-12-11T00:40:05.093Z,17.4
2022-12-11T00:45:05.088Z,18.6
2022-12-11T00:50:05.089Z,17.9
2022-12-11T00:55:05.095Z,17.3
2022-12-11T01:00:05.087Z,16.5
2022-12-11T01:05:05.085Z,16.5
2022-12-11T01:10:05.187Z,16.9
2022-12-11T01:15:05.091Z,16.8
2022-12-11T01:20:05.099Z,16.6
2022-12-11T01:25:05.088Z,17
2022-12-11T01:30:05.081Z,18
2022-12-11T01:35:05.093Z,18
2022-12-11T01:40:05.099Z,17.2
2022-12-11T01:45:05.088Z,16
2022-12-11T01:50:05.087Z,16.3
2022-12-11T01:55:05.098Z,15.9
2022-12-11T02:00:05.083Z,16.1
2022-12-11T02:05:05.094Z,16.1
2022-12-11T02:10:05.084Z,15.1
2022-12-11T02:15:05.097Z,15
2022-12-11T02:20:05.083Z,14.9
2022-12-11T02:25:05.090Z,12.7
2022-12-11T02:30:05.084Z,12
2022-12-11T02:35:05.087Z,12
2022-12-11T02:40:05.083Z,12.4
2022-12-11T02:45:05.147Z,12
2022-12-11T02:50:05.085Z,11.9
2022-12-11T02:55:05.084Z,11.9
2022-12-11T03:00:05.083Z,13
2022-12-11T03:05:05.101Z,13
2022-12-11T03:10:05.095Z,12.7
2022-12-11T03:15:05.085Z,13.7
2022-12-11T03:20:05.089Z,14.7
2022-12-11T03:25:05.089Z,14.1
2022-12-11T03:30:05.079Z,14.3
2022-12-11T03:35:05.083Z,14.3
2022-12-11T03:40:05.076Z,13.5
2022-12-11T03:45:05.088Z,15
2022-12-11T03:50:05.085Z,13.4
2022-12-11T03:55:05.084Z,13.8
2022-12-11T04:00:05.097Z,13.8
2022-12-11T04:05:05.143Z,13.8
2022-12-11T04:10:05.088Z,13.5
2022-12-11T04:15:05.092Z,14.4
2022-12-11T04:20:05.086Z,13.3
2022-12-11T04:25:05.111Z,13.4
2022-12-11T04:30:05.089Z,13.8
2022-12-11T04:35:05.090Z,13.8
2022-12-11T04:40:05.091Z,14.8
2022-12-11T04:45:05.101Z,13.8
2022-12-11T04:50:05.097Z,14
2022-12-11T04:55:05.083Z,14.1
2022-12-11T05:00:05.080Z,14.8
2022-12-11T05:05:05.091Z,14.8
2022-12-11T05:10:05.085Z,13.1
2022-12-11T05:15:05.089Z,13.5
2022-12-11T05:20:05.089Z,12.9
2022-12-11T05:25:05.084Z,13.5
2022-12-11T05:30:05.090Z,14.8
2022-12-11T05:35:05.089Z,14.8
2022-12-11T05:40:05.080Z,14.9
2022-12-11T05:45:05.088Z,14.7
2022-12-11T05:50:05.087Z,15.4
2022-12-11T05:55:05.100Z,14.5
2022-12-11T06:00:05.085Z,13.8
2022-12-11T06:05:05.173Z,13.8
2022-12-11T06:10:05.087Z,14.3
2022-12-11T06:15:05.091Z,15.3
2022-12-11T06:20:05.081Z,15
2022-12-11T06:25:05.088Z,14
2022-12-11T06:30:05.081Z,15.8
2022-12-11T06:35:05.087Z,15.8
2022-12-11T06:40:05.086Z,14.7
2022-12-11T06:45:05.086Z,13.3
2022-12-11T06:50:05.084Z,13.4
2022-12-11T06:55:05.102Z,13.8
2022-12-11T07:00:05.095Z,14.5
2022-12-11T07:05:05.084Z,14.5
2022-12-11T07:10:08.215Z,15
2022-12-11T07:15:05.095Z,15
2022-12-11T07:20:05.081Z,17
2022-12-11T07:25:05.085Z,12.5
2022-12-11T07:30:05.081Z,12.3
2022-12-11T07:35:05.081Z,12.3
2022-12-11T07:40:05.085Z,12.3
2022-12-11T07:45:05.088Z,13.1
2022-12-11T07:50:05.087Z,12.6
2022-12-11T07:55:05.084Z,11.9
2022-12-11T08:00:05.135Z,11
2022-12-11T08:05:05.310Z,11
2022-12-11T08:10:05.335Z,10.6
2022-12-11T08:15:05.233Z,10.6
2022-12-11T08:20:05.281Z,11.3
2022-12-11T08:25:05.102Z,10.4
2022-12-11T08:30:05.086Z,13.6
2022-12-11T08:35:05.103Z,13.6
2022-12-11T08:40:05.094Z,20.6
2022-12-11T08:45:05.088Z,11.6
2022-12-11T08:50:05.086Z,12.3
2022-12-11T08:55:05.085Z,16.1
2022-12-11T09:00:05.081Z,11.8
2022-12-11T09:05:05.096Z,11.8
2022-12-11T09:10:05.085Z,15.4
2022-12-11T09:15:05.093Z,14.1
2022-12-11T09:20:05.084Z,13.1
2022-12-11T09:25:05.087Z,11.7
2022-12-11T09:30:05.089Z,13.1
2022-12-11T09:35:05.098Z,13.1
2022-12-11T09:40:07.720Z,13
2022-12-11T09:45:05.091Z,12.1
2022-12-11T09:50:05.081Z,11.6
2022-12-11T09:55:05.092Z,11.2
2022-12-11T10:00:07.901Z,11.5
2022-12-11T10:05:05.090Z,11.5
2022-12-11T10:10:05.086Z,11
2022-12-11T10:15:05.132Z,10.6
2022-12-11T10:20:05.094Z,10
2022-12-11T10:25:12.750Z,10.6
2022-12-11T10:30:05.084Z,10.8
2022-12-11T10:35:05.086Z,10.8
2022-12-11T10:40:05.081Z,9.6
2022-12-11T10:45:05.095Z,10
2022-12-11T10:50:05.081Z,9.2
2022-12-11T10:55:05.090Z,9.2
2022-12-11T11:00:05.093Z,9.3
2022-12-11T11:05:05.107Z,9.3
2022-12-11T11:10:05.088Z,9.1
2022-12-11T11:15:05.095Z,8.5
2022-12-11T11:20:05.089Z,8.4
2022-12-11T11:25:05.086Z,9.1
2022-12-11T11:30:05.086Z,8.6
2022-12-11T11:35:05.087Z,8.6
2022-12-11T11:40:05.081Z,8.1
2022-12-11T11:45:05.093Z,8.9
2022-12-11T11:50:05.082Z,8.8
2022-12-11T11:55:05.088Z,7.9
2022-12-11T12:00:05.085Z,8.2
2022-12-11T12:05:05.096Z,8.2
2022-12-11T12:10:05.133Z,8.2
2022-12-11T12:15:05.097Z,7.6
2022-12-11T12:20:05.094Z,8
2022-12-11T12:25:05.112Z,9.5
2022-12-11T12:30:05.097Z,9.1
2022-12-11T12:35:05.118Z,9.1
2022-12-11T12:40:05.091Z,10
2022-12-11T12:45:05.096Z,9.8
2022-12-11T12:50:05.098Z,10
2022-12-11T12:55:05.096Z,9.2
2022-12-11T13:00:09.634Z,10.2
2022-12-11T13:05:05.087Z,10.2
2022-12-11T13:10:05.082Z,9.2
2022-12-11T13:15:05.099Z,8.6
2022-12-11T13:20:05.091Z,11.1
2022-12-11T13:25:05.085Z,9
2022-12-11T13:30:05.092Z,9.1
2022-12-11T13:35:05.095Z,9.1
2022-12-11T13:40:05.092Z,8.9
2022-12-11T13:45:05.132Z,9.7
2022-12-11T13:50:05.080Z,9.7
2022-12-11T13:55:05.091Z,8.9
2022-12-11T14:00:05.080Z,8.7
2022-12-11T14:05:05.097Z,8.7
2022-12-11T14:10:05.089Z,9.6
2022-12-11T14:15:05.095Z,10.7
2022-12-11T14:20:05.079Z,10.1
2022-12-11T14:25:05.094Z,9.5
2022-12-11T14:30:05.082Z,9.9
2022-12-11T14:35:05.089Z,9.9
2022-12-11T14:40:05.080Z,9.9
2022-12-11T14:45:05.086Z,9.7
2022-12-11T14:50:05.204Z,9.8
2022-12-11T14:55:05.091Z,10.3
2022-12-11T15:00:05.191Z,10.5
2022-12-11T15:05:05.084Z,10.5
2022-12-11T15:10:05.124Z,10.7
2022-12-11T15:15:05.091Z,10.7
2022-12-11T15:20:05.081Z,10.6
2022-12-11T15:25:05.093Z,11
2022-12-11T15:30:05.084Z,12.2
2022-12-11T15:35:05.097Z,12.2
2022-12-11T15:40:05.088Z,12
2022-12-11T15:45:05.169Z,12.3
2022-12-11T15:50:05.085Z,12.3
2022-12-11T15:55:05.086Z,13.3
2022-12-11T16:00:05.086Z,12.8
2022-12-11T16:05:05.087Z,12.8
2022-12-11T16:10:05.086Z,13.6
2022-12-11T16:15:05.089Z,14.4
2022-12-11T16:20:05.090Z,13.5
2022-12-11T16:25:05.102Z,14
2022-12-11T16:30:05.092Z,12.7
2022-12-11T16:35:05.099Z,12.7
2022-12-11T16:40:05.081Z,13.7
2022-12-11T16:45:05.092Z,13.2
2022-12-11T16:50:05.080Z,14.3
2022-12-11T16:55:05.154Z,13
2022-12-11T17:00:05.083Z,12.8
2022-12-11T17:05:05.122Z,12.8
2022-12-11T17:10:05.086Z,13.6
2022-12-11T17:15:05.096Z,12.5
2022-12-11T17:20:05.092Z,12.4
2022-12-11T17:25:05.094Z,12.5
2022-12-11T17:30:05.086Z,11.5
2022-12-11T17:35:05.100Z,11.5
2022-12-11T17:40:05.094Z,11.5
2022-12-11T17:45:05.090Z,11.9
2022-12-11T17:50:05.083Z,12.3
2022-12-11T17:55:05.095Z,12.6
2022-12-11T18:00:05.081Z,12.2
2022-12-11T18:05:05.090Z,12.2
2022-12-11T18:10:05.091Z,12.1
2022-12-11T18:15:05.089Z,11.5
2022-12-11T18:20:05.079Z,10.6
2022-12-11T18:25:09.427Z,11.3
2022-12-11T18:30:05.098Z,11.2
2022-12-11T18:35:05.104Z,11.2
2022-12-11T18:40:05.110Z,11.4
2022-12-11T18:45:05.100Z,12.3
2022-12-11T18:50:07.882Z,11
2022-12-11T18:55:05.163Z,11.3
2022-12-11T19:00:05.114Z,11
2022-12-11T19:05:05.106Z,11
2022-12-11T19:10:05.095Z,11.9
2022-12-11T19:15:05.112Z,11.2
2022-12-11T19:20:18.991Z,10
2022-12-11T19:25:05.101Z,10
2022-12-11T19:30:05.085Z,11.8
2022-12-11T19:35:05.093Z,11.8
2022-12-11T19:40:05.080Z,9.7
2022-12-11T19:45:05.090Z,9.9
2022-12-11T19:50:05.088Z,10.7
2022-12-11T19:55:05.085Z,10.4
2022-12-11T20:00:05.088Z,10.4
2022-12-11T20:05:05.092Z,10.4
2022-12-11T20:10:05.099Z,10.9
2022-12-11T20:15:05.096Z,12.5
2022-12-11T20:20:05.097Z,10.8
2022-12-11T20:25:05.097Z,9.9
2022-12-11T20:30:05.078Z,9.7
2022-12-11T20:35:05.094Z,9.7
2022-12-11T20:40:05.083Z,15
2022-12-11T20:45:05.095Z,12.3
2022-12-11T20:50:05.085Z,10
2022-12-11T20:55:05.093Z,10.3
2022-12-11T21:00:05.079Z,9.7
2022-12-11T21:05:05.097Z,9.7
2022-12-11T21:10:05.096Z,9.8
2022-12-11T21:15:05.137Z,10.6
2022-12-11T21:20:05.083Z,10.2
2022-12-11T21:25:05.088Z,10.1
2022-12-11T21:30:05.086Z,11.2
2022-12-11T21:35:05.094Z,11.2
2022-12-11T21:40:05.096Z,10
2022-12-11T21:50:05.086Z,8.7
2022-12-11T21:55:05.102Z,10.1
2022-12-11T22:00:05.087Z,8.3
2022-12-11T22:05:05.091Z,8.3
2022-12-11T22:10:05.082Z,9.9
2022-12-11T22:15:05.132Z,9.6
2022-12-11T22:20:05.089Z,9.2
2022-12-11T22:25:05.089Z,11.3
2022-12-11T22:30:05.088Z,10.7
2022-12-11T22:35:05.101Z,10.7
2022-12-11T22:40:05.081Z,11.4
2022-12-11T22:45:05.082Z,11
2022-12-11T22:50:05.097Z,10.5
2022-12-11T22:55:05.097Z,11.5
2022-12-11T23:00:05.086Z,10.3
2022-12-11T23:05:05.086Z,10.3
2022-12-11T23:10:05.078Z,10.5
2022-12-11T23:15:05.086Z,11.5
2022-12-11T23:20:05.085Z,11.8
2022-12-11T23:25:05.085Z,11.2
2022-12-11T23:30:05.082Z,10.9
2022-12-11T23:35:05.089Z,10.9
2022-12-11T23:40:05.084Z,11.4
2022-12-11T23:45:05.091Z,11.2
2022-12-11T23:50:05.086Z,11.5
2022-12-11T23:55:05.088Z,11.6
